Current Conditions
Partly Cloudy
Conditions



Pressure
1015.92 (hPa) - 30 (inHG)
Visibility

10.0 (km) - 6.2 (miles)
Temperature
19  °C
Temperature
10  °C
Dewpoint
56  %
 Humidity
Wind Speed
5  km/h
3  kts
3  mph
1.3  m/s
Wind Direction
N
45°
E
90°
135°
S
180°
225°
W
270°
315°
Calm

Due North
Airport Data
ELLX
Luxembourg-Findel International Airport
Metar :ELLX 171320Z VRB03KT 9999 FEW032 BKN060 19/10 Q1016 NOSIG
Fri 17th September 15:20 pm
Raw Metar Info
Raw METAR is the most common format in the world for the transmission of observational weather data. It is highly standardized through the International Civil Aviation Organization (ICAO), which allows it to be understood throughout most of the world.
API Info
Data Provided by
https://www.checkwx.com/weather/ELLX

Aviation Weather providing METAR, TAF, AIRMET, SIGMET and OUTLOOK Weather Reports
© Info
CSS/SVG/PHP scripts were developed by weather34.com for use in the weather34 template © 2015-2021

Guide Info provided by Metar-Wikipedia